createdAt,value
2017-08-27T00:00:16.245Z,16.80
2017-08-27T00:02:43.857Z,10.53
2017-08-27T00:05:11.409Z,15.43
2017-08-27T00:07:39.010Z,12.70
2017-08-27T00:10:06.610Z,9.73
2017-08-27T00:12:34.187Z,12.37
2017-08-27T00:15:01.817Z,13.23
2017-08-27T00:17:29.406Z,18.43
2017-08-27T00:19:56.957Z,12.37
2017-08-27T00:22:24.678Z,11.50
2017-08-27T00:24:53.109Z,10.63
2017-08-27T00:27:20.656Z,14.60
2017-08-27T00:29:48.265Z,10.37
2017-08-27T00:32:15.805Z,12.63
2017-08-27T00:34:43.360Z,16.20
2017-08-27T00:37:11.024Z,14.07
2017-08-27T00:39:38.579Z,16.90
2017-08-27T00:42:06.291Z,15.30
2017-08-27T00:44:33.840Z,19.33
2017-08-27T00:47:01.666Z,11.20
2017-08-27T00:49:29.212Z,7.80
2017-08-27T00:51:56.781Z,13.73
2017-08-27T00:54:24.383Z,10.30
2017-08-27T00:56:51.962Z,14.33
2017-08-27T00:59:19.558Z,21.20
2017-08-27T01:01:47.162Z,16.80
2017-08-27T01:04:16.287Z,10.57
2017-08-27T01:06:44.782Z,12.10
2017-08-27T01:09:12.427Z,11.40
2017-08-27T01:11:39.999Z,10.00
2017-08-27T01:14:07.614Z,11.77
2017-08-27T01:16:35.940Z,10.70
2017-08-27T01:19:03.519Z,14.07
2017-08-27T01:21:31.276Z,14.73
2017-08-27T01:23:58.816Z,12.40
2017-08-27T01:26:26.359Z,10.07
2017-08-27T01:28:54.011Z,11.40
2017-08-27T01:31:21.620Z,18.00
2017-08-27T01:33:49.136Z,12.37
2017-08-27T01:36:16.687Z,13.07
2017-08-27T01:38:44.199Z,13.40
2017-08-27T01:41:11.730Z,16.40
2017-08-27T01:43:39.262Z,14.37
2017-08-27T01:46:06.816Z,17.10
2017-08-27T01:48:34.297Z,14.00
2017-08-27T01:51:01.843Z,15.13
2017-08-27T01:53:30.114Z,12.43
2017-08-27T01:55:58.397Z,13.70
2017-08-27T01:58:26.750Z,11.60
2017-08-27T02:00:54.326Z,11.13
2017-08-27T02:03:21.877Z,22.63
2017-08-27T02:05:49.442Z,13.00
2017-08-27T02:08:17.000Z,13.77
2017-08-27T02:10:44.471Z,14.10
2017-08-27T02:13:12.001Z,10.80
2017-08-27T02:15:39.492Z,14.53
2017-08-27T02:18:07.030Z,14.67
2017-08-27T02:20:34.552Z,13.97
2017-08-27T02:23:02.086Z,12.00
2017-08-27T02:25:29.607Z,11.77
2017-08-27T02:27:57.149Z,15.87
2017-08-27T02:30:24.620Z,13.30
2017-08-27T02:32:52.907Z,10.77
2017-08-27T02:35:20.424Z,14.10
2017-08-27T02:37:47.940Z,12.50
2017-08-27T02:40:15.469Z,14.93
2017-08-27T02:42:43.038Z,16.13
2017-08-27T02:45:10.671Z,9.73
2017-08-27T02:47:38.162Z,9.97
2017-08-27T02:50:06.416Z,10.63
2017-08-27T02:52:33.920Z,15.13
2017-08-27T02:55:01.517Z,13.70
2017-08-27T02:57:29.008Z,13.53
2017-08-27T02:59:56.584Z,18.57
2017-08-27T03:02:24.154Z,21.60
2017-08-27T03:04:52.066Z,11.33
2017-08-27T03:07:19.563Z,10.47
2017-08-27T03:09:47.104Z,13.43
2017-08-27T03:12:14.581Z,8.57
2017-08-27T03:14:42.057Z,20.63
2017-08-27T03:17:09.680Z,18.03
2017-08-27T03:19:37.953Z,17.03
2017-08-27T03:22:05.574Z,12.00
2017-08-27T03:24:33.102Z,13.30
2017-08-27T03:27:00.730Z,15.27
2017-08-27T03:29:29.029Z,11.33
2017-08-27T03:31:56.585Z,11.17
2017-08-27T03:34:24.061Z,16.70
2017-08-27T03:36:51.683Z,12.80
2017-08-27T03:39:19.168Z,10.23
2017-08-27T03:41:46.640Z,17.20
2017-08-27T03:44:14.153Z,15.83
2017-08-27T03:46:41.628Z,11.53
2017-08-27T03:49:10.038Z,9.10
2017-08-27T03:51:37.525Z,12.10
2017-08-27T03:54:05.040Z,12.20
2017-08-27T03:56:32.608Z,18.70
2017-08-27T03:59:00.085Z,8.80
2017-08-27T04:01:27.612Z,12.90
2017-08-27T04:03:55.975Z,10.63
2017-08-27T04:06:23.492Z,13.97
2017-08-27T04:08:51.074Z,8.40
2017-08-27T04:11:18.531Z,13.77
2017-08-27T04:13:46.051Z,10.37
2017-08-27T04:16:13.547Z,10.87
2017-08-27T04:18:41.031Z,12.10
2017-08-27T04:21:08.564Z,14.83
2017-08-27T04:23:36.047Z,20.63
2017-08-27T04:26:03.523Z,13.20
2017-08-27T04:28:31.013Z,14.23
2017-08-27T04:30:58.512Z,13.53
2017-08-27T04:33:25.976Z,12.87
2017-08-27T04:35:53.473Z,11.90
2017-08-27T04:38:20.993Z,14.57
2017-08-27T04:40:49.244Z,18.93
2017-08-27T04:43:16.728Z,16.10
2017-08-27T04:45:45.157Z,16.00
2017-08-27T04:48:12.682Z,10.30
2017-08-27T04:50:41.088Z,16.73
2017-08-27T04:53:08.643Z,16.60
2017-08-27T04:55:36.115Z,16.40
2017-08-27T04:58:03.572Z,9.00
2017-08-27T05:00:31.089Z,11.83
2017-08-27T05:02:58.621Z,16.03
2017-08-27T05:05:26.096Z,11.07
2017-08-27T05:07:53.588Z,13.70
2017-08-27T05:10:21.104Z,11.00
2017-08-27T05:12:48.603Z,13.23
2017-08-27T05:15:16.191Z,12.10
2017-08-27T05:17:43.697Z,19.33
2017-08-27T05:20:11.199Z,16.20
2017-08-27T05:22:38.672Z,12.13
2017-08-27T05:25:06.147Z,16.43
2017-08-27T05:27:33.645Z,10.40
2017-08-27T05:30:01.236Z,14.83
2017-08-27T05:32:28.757Z,13.87
2017-08-27T05:34:56.246Z,9.70
2017-08-27T05:37:23.729Z,15.57
2017-08-27T05:39:51.275Z,14.70
2017-08-27T05:42:18.814Z,10.80
2017-08-27T05:44:46.303Z,16.77
2017-08-27T05:47:13.846Z,11.87
2017-08-27T05:49:41.331Z,15.77
2017-08-27T05:52:09.099Z,11.87
2017-08-27T05:54:36.702Z,13.20
2017-08-27T05:57:04.204Z,14.10
2017-08-27T05:59:31.680Z,13.63
2017-08-27T06:01:59.934Z,14.60
2017-08-27T06:04:27.434Z,13.20
2017-08-27T06:06:55.023Z,12.40
2017-08-27T06:09:22.643Z,9.27
2017-08-27T06:11:50.140Z,12.93
2017-08-27T06:14:17.627Z,13.40
2017-08-27T06:16:45.388Z,11.03
2017-08-27T06:19:12.891Z,11.53
2017-08-27T06:21:40.599Z,8.03
2017-08-27T06:24:08.097Z,7.27
2017-08-27T06:26:35.901Z,10.73
2017-08-27T06:29:03.367Z,12.57
2017-08-27T06:31:30.931Z,12.70
2017-08-27T06:33:58.424Z,17.00
2017-08-27T06:36:25.968Z,11.90
2017-08-27T06:38:53.711Z,13.27
2017-08-27T06:41:21.960Z,13.53
2017-08-27T06:43:49.460Z,12.00
2017-08-27T06:46:16.945Z,13.93
2017-08-27T06:48:44.538Z,16.17
2017-08-27T06:51:12.059Z,13.80
2017-08-27T06:53:39.568Z,12.13
2017-08-27T06:56:07.045Z,16.63
2017-08-27T06:58:34.542Z,11.43
2017-08-27T07:01:02.154Z,11.00
2017-08-27T07:03:29.651Z,14.30
2017-08-27T07:05:57.144Z,14.43
2017-08-27T07:08:24.733Z,14.63
2017-08-27T07:10:52.414Z,14.00
2017-08-27T07:13:19.974Z,14.87
2017-08-27T07:15:47.514Z,19.40
2017-08-27T07:18:15.044Z,8.53
2017-08-27T07:20:42.543Z,14.87
2017-08-27T07:23:10.072Z,12.00
2017-08-27T07:25:37.577Z,18.33
2017-08-27T07:28:05.128Z,20.87
2017-08-27T07:30:32.725Z,15.37
2017-08-27T07:33:00.323Z,14.23
2017-08-27T07:35:27.869Z,18.00
2017-08-27T07:37:56.136Z,13.43
2017-08-27T07:40:23.789Z,12.80
2017-08-27T07:42:51.313Z,10.13
2017-08-27T07:45:19.570Z,12.90
2017-08-27T07:47:47.194Z,10.57
2017-08-27T07:50:14.727Z,13.80
2017-08-27T07:52:42.224Z,13.67
2017-08-27T07:55:10.143Z,10.07
2017-08-27T07:57:37.640Z,17.27
2017-08-27T08:00:05.146Z,9.83
2017-08-27T08:02:33.435Z,11.17
2017-08-27T08:05:01.799Z,10.87
2017-08-27T08:07:29.309Z,10.13
2017-08-27T08:09:56.853Z,15.23
2017-08-27T08:12:24.400Z,9.33
2017-08-27T08:14:51.983Z,22.50
2017-08-27T08:17:19.474Z,25.83
2017-08-27T08:19:47.117Z,14.00
2017-08-27T08:22:15.546Z,12.67
2017-08-27T08:24:43.092Z,12.50
2017-08-27T08:27:11.374Z,13.37
2017-08-27T08:29:38.885Z,8.33
2017-08-27T08:32:06.368Z,10.60
2017-08-27T08:34:33.859Z,14.13
2017-08-27T08:37:02.450Z,12.53
2017-08-27T08:39:30.804Z,10.20
2017-08-27T08:41:58.327Z,8.10
2017-08-27T08:44:25.812Z,15.00
2017-08-27T08:46:53.366Z,10.70
2017-08-27T08:49:20.831Z,14.00
2017-08-27T08:51:48.303Z,13.90
2017-08-27T08:54:15.811Z,14.67
2017-08-27T08:56:43.341Z,8.33
2017-08-27T08:59:10.861Z,14.20
2017-08-27T09:01:39.134Z,13.10
2017-08-27T09:04:06.640Z,15.40
2017-08-27T09:06:34.136Z,10.57
2017-08-27T09:09:01.618Z,9.07
2017-08-27T09:11:29.901Z,11.90
2017-08-27T09:13:58.192Z,9.83
2017-08-27T09:16:25.695Z,10.67
2017-08-27T09:18:53.600Z,9.77
2017-08-27T09:21:21.164Z,8.47
2017-08-27T09:23:48.662Z,13.97
2017-08-27T09:26:16.976Z,8.80
2017-08-27T09:28:44.563Z,9.43
2017-08-27T09:31:12.049Z,11.33
2017-08-27T09:33:40.392Z,10.67
2017-08-27T09:36:08.058Z,9.53
2017-08-27T09:38:35.701Z,11.10
2017-08-27T09:41:03.252Z,15.90
2017-08-27T09:43:30.789Z,12.53
2017-08-27T09:45:58.338Z,7.03
2017-08-27T09:48:25.890Z,12.33
2017-08-27T09:50:53.825Z,14.00
2017-08-27T09:53:21.399Z,9.17
2017-08-27T09:55:49.761Z,8.57
2017-08-27T09:58:17.359Z,11.63
2017-08-27T10:00:45.670Z,14.23
2017-08-27T10:03:14.020Z,8.30
2017-08-27T10:05:41.602Z,11.33
2017-08-27T10:08:09.530Z,8.43
2017-08-27T10:10:37.295Z,8.60
2017-08-27T10:13:05.944Z,9.17
2017-08-27T10:15:33.575Z,7.77
2017-08-27T10:18:02.156Z,12.43
2017-08-27T10:20:30.710Z,6.73
2017-08-27T10:22:58.313Z,11.40
2017-08-27T10:25:27.295Z,12.93
2017-08-27T10:27:55.292Z,9.17
2017-08-27T10:30:22.983Z,10.33
2017-08-27T10:32:54.820Z,7.77
2017-08-27T10:35:22.561Z,11.37
2017-08-27T10:37:54.322Z,8.50
2017-08-27T10:40:22.025Z,6.83
2017-08-27T10:42:50.530Z,7.27
2017-08-27T10:45:18.148Z,8.60
2017-08-27T10:47:45.740Z,8.13
2017-08-27T10:50:13.397Z,8.63
2017-08-27T10:52:41.119Z,7.73
2017-08-27T10:55:09.011Z,13.57
2017-08-27T10:57:36.694Z,14.13
2017-08-27T11:00:05.023Z,6.17
2017-08-27T11:02:34.184Z,8.30
2017-08-27T11:05:01.791Z,11.90
2017-08-27T11:07:29.419Z,7.70
2017-08-27T11:09:57.833Z,7.13
2017-08-27T11:12:25.383Z,9.13
2017-08-27T11:14:53.625Z,9.60
2017-08-27T11:17:25.107Z,11.10
2017-08-27T11:19:58.858Z,8.00
2017-08-27T11:22:27.644Z,9.07
2017-08-27T11:24:55.334Z,11.03
2017-08-27T11:27:23.017Z,10.30
2017-08-27T11:29:51.781Z,11.03
2017-08-27T11:32:21.528Z,9.40
2017-08-27T11:34:49.187Z,14.13
2017-08-27T11:37:18.759Z,12.93
2017-08-27T11:39:47.110Z,10.43
2017-08-27T11:42:15.564Z,13.23
2017-08-27T11:44:43.338Z,12.20
2017-08-27T11:47:12.426Z,9.93
2017-08-27T11:49:40.223Z,14.27
2017-08-27T11:52:07.855Z,16.63
2017-08-27T11:54:36.919Z,15.57
2017-08-27T11:57:04.751Z,14.37
2017-08-27T11:59:32.469Z,12.10
2017-08-27T12:02:00.526Z,13.63
2017-08-27T12:04:28.085Z,14.03
2017-08-27T12:06:57.260Z,11.40
2017-08-27T12:09:24.883Z,11.50
2017-08-27T12:11:52.551Z,11.87
2017-08-27T12:14:20.571Z,13.50
2017-08-27T12:16:48.401Z,10.33
2017-08-27T12:19:18.067Z,9.37
2017-08-27T12:21:46.374Z,13.80
2017-08-27T12:24:13.956Z,9.67
2017-08-27T12:26:42.156Z,12.53
2017-08-27T12:29:10.612Z,10.57
2017-08-27T12:31:39.023Z,9.63
2017-08-27T12:34:06.769Z,10.47
2017-08-27T12:36:34.865Z,8.63
2017-08-27T12:39:02.564Z,9.87
2017-08-27T12:41:30.900Z,9.53
2017-08-27T12:44:00.144Z,7.97
2017-08-27T12:46:27.919Z,15.80
2017-08-27T12:48:55.586Z,10.97
2017-08-27T12:51:23.195Z,10.40
2017-08-27T12:53:51.897Z,11.83
2017-08-27T12:56:19.612Z,10.43
2017-08-27T12:58:47.142Z,10.30
2017-08-27T13:01:14.788Z,9.10
2017-08-27T13:03:42.446Z,9.10
2017-08-27T13:06:11.986Z,10.70
2017-08-27T13:08:40.263Z,9.60
2017-08-27T13:11:07.967Z,11.60
2017-08-27T13:13:35.653Z,7.80
2017-08-27T13:16:03.379Z,10.13
2017-08-27T13:18:31.179Z,12.33
2017-08-27T13:20:58.801Z,9.53
2017-08-27T13:23:26.448Z,13.43
2017-08-27T13:25:54.176Z,7.20
2017-08-27T13:28:22.001Z,9.53
2017-08-27T13:30:49.540Z,20.97
2017-08-27T13:33:17.124Z,14.83
2017-08-27T13:35:45.509Z,21.60
2017-08-27T13:38:13.094Z,32.90
2017-08-27T13:40:40.725Z,25.27
2017-08-27T13:43:10.515Z,27.23
2017-08-27T13:45:38.181Z,17.60
2017-08-27T13:48:08.063Z,15.97
2017-08-27T13:50:35.756Z,17.10
2017-08-27T13:53:05.218Z,15.30
2017-08-27T13:55:32.825Z,14.87
2017-08-27T13:58:00.499Z,15.53
2017-08-27T14:00:29.043Z,20.17
2017-08-27T14:02:56.680Z,13.27
2017-08-27T14:05:24.223Z,12.03
2017-08-27T14:07:52.039Z,14.30
2017-08-27T14:10:20.532Z,17.83
2017-08-27T14:12:48.081Z,17.97
2017-08-27T14:15:15.633Z,16.33
2017-08-27T14:17:43.149Z,11.63
2017-08-27T14:20:11.473Z,15.57
2017-08-27T14:22:39.225Z,16.17
2017-08-27T14:25:06.721Z,16.00
2017-08-27T14:27:34.239Z,22.83
2017-08-27T14:30:01.784Z,22.23
2017-08-27T14:32:29.358Z,14.83
2017-08-27T14:34:56.868Z,15.90
2017-08-27T14:37:24.368Z,17.63
2017-08-27T14:39:53.013Z,14.63
2017-08-27T14:42:20.501Z,20.00
2017-08-27T14:44:48.808Z,14.37
2017-08-27T14:47:18.204Z,18.93
2017-08-27T14:49:46.762Z,19.40
2017-08-27T14:52:16.580Z,19.10
2017-08-27T14:54:44.075Z,16.90
2017-08-27T14:57:11.616Z,16.93
2017-08-27T14:59:39.355Z,25.93
2017-08-27T15:02:07.094Z,19.67
2017-08-27T15:04:34.647Z,13.40
2017-08-27T15:07:02.611Z,13.37
2017-08-27T15:09:30.095Z,12.90
2017-08-27T15:11:57.768Z,14.73
2017-08-27T15:14:25.350Z,15.00
2017-08-27T15:16:52.908Z,18.10
2017-08-27T15:19:21.151Z,19.90
2017-08-27T15:21:48.661Z,15.50
2017-08-27T15:24:18.730Z,15.53
2017-08-27T15:26:46.336Z,17.40
2017-08-27T15:29:14.641Z,16.97
2017-08-27T15:31:43.175Z,19.87
2017-08-27T15:34:12.113Z,15.80
2017-08-27T15:36:39.700Z,16.23
2017-08-27T15:39:07.270Z,14.17
2017-08-27T15:41:34.805Z,15.20
2017-08-27T15:44:02.322Z,17.43
2017-08-27T15:46:29.869Z,14.20
2017-08-27T15:48:57.445Z,12.67
2017-08-27T15:51:25.908Z,18.97
2017-08-27T15:53:53.571Z,20.20
2017-08-27T15:56:21.075Z,17.80
2017-08-27T15:58:49.389Z,15.00
2017-08-27T16:01:17.014Z,13.60
2017-08-27T16:03:45.304Z,14.03
2017-08-27T16:06:12.819Z,23.23
2017-08-27T16:08:40.360Z,19.00
2017-08-27T16:11:07.896Z,15.13
2017-08-27T16:13:35.441Z,20.33
2017-08-27T16:16:03.987Z,20.30
2017-08-27T16:18:33.297Z,14.70
2017-08-27T16:21:01.121Z,16.13
2017-08-27T16:23:28.739Z,18.43
2017-08-27T16:25:57.268Z,16.33
2017-08-27T16:28:24.971Z,14.80
2017-08-27T16:30:53.761Z,15.90
2017-08-27T16:33:22.048Z,16.63
2017-08-27T16:35:50.338Z,22.33
2017-08-27T16:38:17.898Z,34.37
2017-08-27T16:40:45.498Z,26.93
2017-08-27T16:43:13.010Z,32.73
2017-08-27T16:45:40.533Z,27.27
2017-08-27T16:48:08.097Z,22.03
2017-08-27T16:50:35.647Z,21.00
2017-08-27T16:53:03.273Z,19.13
2017-08-27T16:55:30.953Z,19.40
2017-08-27T16:57:58.730Z,18.67
2017-08-27T17:00:26.223Z,18.27
2017-08-27T17:02:53.930Z,18.03
2017-08-27T17:05:22.226Z,13.73
2017-08-27T17:07:49.721Z,22.23
2017-08-27T17:10:17.277Z,20.83
2017-08-27T17:12:44.821Z,21.30
2017-08-27T17:15:12.409Z,22.37
2017-08-27T17:17:39.960Z,17.73
2017-08-27T17:20:08.044Z,17.20
2017-08-27T17:22:35.659Z,16.77
2017-08-27T17:25:03.415Z,17.43
2017-08-27T17:27:31.799Z,17.40
2017-08-27T17:29:59.424Z,17.10
2017-08-27T17:32:26.918Z,17.43
2017-08-27T17:34:54.553Z,17.67
2017-08-27T17:37:22.574Z,20.10
2017-08-27T17:39:50.094Z,17.53
2017-08-27T17:42:18.396Z,16.87
2017-08-27T17:44:45.919Z,18.87
2017-08-27T17:47:14.355Z,14.27
2017-08-27T17:49:41.878Z,24.63
2017-08-27T17:52:10.509Z,14.93
2017-08-27T17:54:38.029Z,20.93
2017-08-27T17:57:05.630Z,14.13
2017-08-27T17:59:33.127Z,22.27
2017-08-27T18:02:00.724Z,19.53
2017-08-27T18:04:28.258Z,21.10
2017-08-27T18:06:56.746Z,21.27
2017-08-27T18:09:24.270Z,17.20
2017-08-27T18:11:52.546Z,17.93
2017-08-27T18:14:20.094Z,19.27
2017-08-27T18:16:47.607Z,16.57
2017-08-27T18:19:15.142Z,23.40
2017-08-27T18:21:42.736Z,18.43
2017-08-27T18:24:10.437Z,14.80
2017-08-27T18:26:38.044Z,18.83
2017-08-27T18:29:05.808Z,18.00
2017-08-27T18:31:33.421Z,19.17
2017-08-27T18:34:01.887Z,26.13
2017-08-27T18:36:29.471Z,23.37
2017-08-27T18:38:57.106Z,18.87
2017-08-27T18:41:24.818Z,21.67
2017-08-27T18:43:53.386Z,21.57
2017-08-27T18:46:20.910Z,21.17
2017-08-27T18:48:48.435Z,23.07
2017-08-27T18:51:16.724Z,23.80
2017-08-27T18:53:44.387Z,18.93
2017-08-27T18:56:11.932Z,21.20
2017-08-27T18:58:40.205Z,17.90
2017-08-27T19:01:08.543Z,18.27
2017-08-27T19:03:36.908Z,17.80
2017-08-27T19:06:04.437Z,16.73
2017-08-27T19:08:32.903Z,17.17
2017-08-27T19:11:01.192Z,18.30
2017-08-27T19:13:29.094Z,19.20
2017-08-27T19:15:56.681Z,16.67
2017-08-27T19:18:24.285Z,20.63
2017-08-27T19:20:51.863Z,17.97
2017-08-27T19:23:19.563Z,17.20
2017-08-27T19:25:47.136Z,18.70
2017-08-27T19:28:14.637Z,18.97
2017-08-27T19:30:42.163Z,23.40
2017-08-27T19:33:10.507Z,19.97
2017-08-27T19:35:38.180Z,17.40
2017-08-27T19:38:05.714Z,18.20
2017-08-27T19:40:33.262Z,21.53
2017-08-27T19:43:00.830Z,18.17
2017-08-27T19:45:28.464Z,16.87
2017-08-27T19:47:55.944Z,20.43
2017-08-27T19:50:23.449Z,24.50
2017-08-27T19:52:51.932Z,21.30
2017-08-27T19:55:19.467Z,24.73
2017-08-27T19:57:47.061Z,20.40
2017-08-27T20:00:14.650Z,23.00
2017-08-27T20:02:42.215Z,20.47
2017-08-27T20:05:09.835Z,17.87
2017-08-27T20:07:37.349Z,22.30
2017-08-27T20:10:04.900Z,19.67
2017-08-27T20:12:32.411Z,17.87
2017-08-27T20:15:00.000Z,29.17
2017-08-27T20:17:27.526Z,22.47
2017-08-27T20:19:55.028Z,19.07
2017-08-27T20:22:22.567Z,21.00
2017-08-27T20:24:50.091Z,26.30
2017-08-27T20:27:18.490Z,22.70
2017-08-27T20:29:46.766Z,20.63
2017-08-27T20:32:14.508Z,21.27
2017-08-27T20:34:42.037Z,23.50
2017-08-27T20:37:10.463Z,24.23
2017-08-27T20:39:37.983Z,22.93
2017-08-27T20:42:05.726Z,22.27
2017-08-27T20:44:33.282Z,21.37
2017-08-27T20:47:01.599Z,22.80
2017-08-27T20:49:29.177Z,22.27
2017-08-27T20:51:56.782Z,20.30
2017-08-27T20:54:24.316Z,21.83
2017-08-27T20:56:51.882Z,20.33
2017-08-27T20:59:19.485Z,25.10
2017-08-27T21:01:47.018Z,20.53
2017-08-27T21:04:15.297Z,22.97
2017-08-27T21:06:43.605Z,22.77
2017-08-27T21:09:11.125Z,26.50
2017-08-27T21:11:38.644Z,22.07
2017-08-27T21:14:06.196Z,22.57
2017-08-27T21:16:33.711Z,21.30
2017-08-27T21:19:01.232Z,19.60
2017-08-27T21:21:28.795Z,22.57
2017-08-27T21:23:56.268Z,21.67
2017-08-27T21:26:23.783Z,21.87
2017-08-27T21:28:51.272Z,20.00
2017-08-27T21:31:18.765Z,25.43
2017-08-27T21:33:47.037Z,25.87
2017-08-27T21:36:14.574Z,23.50
2017-08-27T21:38:42.094Z,22.93
2017-08-27T21:41:10.656Z,20.53
2017-08-27T21:43:38.466Z,20.30
2017-08-27T21:46:05.997Z,26.97
2017-08-27T21:48:33.523Z,25.60
2017-08-27T21:51:01.383Z,27.97
2017-08-27T21:53:29.727Z,26.47
2017-08-27T21:55:57.233Z,23.13
2017-08-27T21:58:24.763Z,20.93
2017-08-27T22:00:52.324Z,28.20
2017-08-27T22:03:19.895Z,24.30
2017-08-27T22:05:47.418Z,22.13
2017-08-27T22:08:14.978Z,24.47
2017-08-27T22:10:42.525Z,22.30
2017-08-27T22:13:10.143Z,24.30
2017-08-27T22:15:37.680Z,31.93
2017-08-27T22:18:05.212Z,23.60
2017-08-27T22:20:32.731Z,27.90
2017-08-27T22:23:00.217Z,31.10
2017-08-27T22:25:27.770Z,23.40
2017-08-27T22:27:56.246Z,21.53
2017-08-27T22:30:23.763Z,27.40
2017-08-27T22:32:51.307Z,24.23
2017-08-27T22:35:19.621Z,22.33
2017-08-27T22:37:47.150Z,22.53
2017-08-27T22:40:14.797Z,22.97
2017-08-27T22:42:42.333Z,24.33
2017-08-27T22:45:09.901Z,23.23
2017-08-27T22:47:37.446Z,19.10
2017-08-27T22:50:04.953Z,19.77
2017-08-27T22:52:32.489Z,24.33
2017-08-27T22:55:00.060Z,19.70
2017-08-27T22:57:27.681Z,28.03
2017-08-27T22:59:55.245Z,25.23
2017-08-27T23:02:22.892Z,22.10
2017-08-27T23:04:50.434Z,24.17
2017-08-27T23:07:17.956Z,19.80
2017-08-27T23:09:45.519Z,21.00
2017-08-27T23:12:13.025Z,25.40
2017-08-27T23:14:40.520Z,23.80
2017-08-27T23:17:08.094Z,24.00
2017-08-27T23:19:35.615Z,21.40
2017-08-27T23:22:03.231Z,21.73
2017-08-27T23:24:30.757Z,26.03
2017-08-27T23:26:59.022Z,22.93
2017-08-27T23:29:27.294Z,22.03
2017-08-27T23:31:55.100Z,24.13
2017-08-27T23:34:22.647Z,19.20
2017-08-27T23:36:50.235Z,22.93
2017-08-27T23:39:17.796Z,22.47
2017-08-27T23:41:45.331Z,20.30
2017-08-27T23:44:12.840Z,21.77
2017-08-27T23:46:40.352Z,20.20
2017-08-27T23:49:07.882Z,25.67
2017-08-27T23:51:35.436Z,20.53
2017-08-27T23:54:03.329Z,23.20
2017-08-27T23:56:30.857Z,22.73
2017-08-27T23:58:58.401Z,21.00
